Big Bend National Park, TX

7:24 PM CDT on October 25, 2014 (GMT -0500)
RAWS PANTHER JUNCTION TX US | Change Station
CLOSE
Current Station
Personal Weather Station
Location: Big Bend National Park, TX
Elevation: 3750 ft
Nearby Weather Stations

Elev 3750 ft 29.33 °N, 103.21 °W | Updated 46 minutes ago

Clear
Clear
80 °F
Feels Like 80 °F
N
6
Wind Variable Wind from SE
Gusts 11.0 mph

Today
High -- | Low -- °F
--% Chance of Precip.
Yesterday
High -- | Low -- °F
Precip. -- in
8:00 AM 7:12 PM
Waxing Crescent, 5% visible
Pressure 30.08 in
Visibility 10.0 miles
Clouds Clear
Heat Index 80 °F
Dew Point 51 °F
Humidity 36%
Rainfall 0.00 in
Snow Depth Not available.
UV 0 out of 12
Pollen 6.00 out of 12
Air Quality Not available.
Flu Activity Local Activity
METAR KPRS 260015Z AUTO 32003KT 10SM CLR 28/08 A3008 RMK AO2 T02810075

More Conditions Fewer Conditions

Pressure 30.08 in
Visibility 10.0 miles
Clouds Clear
Heat Index 80 °F
Dew Point 51 °F
Humidity 36%
Rainfall 0.00 in
Snow Depth Not available.
UV 0 out of 12
Pollen 6.00 out of 12
Air Quality Not available.
Flu Activity Local Activity
METAR KPRS 260015Z AUTO 32003KT 10SM CLR 28/08 A3008 RMK AO2 T02810075

More Conditions Fewer Conditions

10-Day Weather Forecast

Almanac

Astronomy

Oct. 25, 2014 Rise Set
Actual Time 8:00 AM CDT 7:12 PM CDT
Civil Twilight 7:36 AM CDT 7:36 PM CDT
Nautical Twilight 7:08 AM CDT 8:04 PM CDT
Astronomical Twilight 6:40 AM CDT 8:32 PM CDT
Moon 9:36 AM CDT (10/25) 8:43 PM CDT (10/25)
Length of Visible Light 12h 00m
Length of Day
11h 11m
Tomorrow will be 1m 36s shorter.
Waxing Crescent, 5% of the Moon is Illuminated
Today
Waxing Crescent
Oct 30
First Quarter
Nov 6
Full
Nov 14
Last Quarter
Nov 22
New

Today's Extremes

State Highs State Lows

Community

WunderPhotos

Upload Photos

1,765,039 photos uploaded!

Nearby

Snow Depth

Station Depth Elevation
No new snow has been reported.

Earthquake Activity

City Distance Mag. Time & Date
No recent earthquake activity has been reported nearby.
Minimum magnitude displayed is 2.5.

Coastal Water Temperatures

Place Temperature
No Stations Reporting

Nearby Weather Stations